createdAt,value
2023-03-22T00:00:22.076Z,284.85
2023-03-22T00:04:24.756Z,286.48
2023-03-22T00:08:27.456Z,352.52
2023-03-22T00:12:30.462Z,338.52
2023-03-22T00:16:34.543Z,408.33
2023-03-22T00:24:42.285Z,383.48
2023-03-22T00:28:45.506Z,406.73
2023-03-22T00:32:49.548Z,297.63
2023-03-22T00:36:52.936Z,200.82
2023-03-22T00:40:55.666Z,360.70
2023-03-22T00:44:58.376Z,458.63
2023-03-22T00:49:02.446Z,374.40
2023-03-22T00:53:05.823Z,459.77
2023-03-22T00:57:08.829Z,386.38
2023-03-22T01:01:14.189Z,366.27
2023-03-22T01:05:22.048Z,396.80
2023-03-22T01:09:24.748Z,529.33
2023-03-22T01:13:27.566Z,470.88
2023-03-22T01:17:30.299Z,615.65
2023-03-22T01:21:34.431Z,559.40
2023-03-22T01:25:37.133Z,456.90
2023-03-22T01:29:39.835Z,529.85
2023-03-22T01:33:42.720Z,569.28
2023-03-22T01:37:46.747Z,580.22
2023-03-22T01:41:49.424Z,503.50
2023-03-22T01:45:53.540Z,530.22
2023-03-22T01:54:02.205Z,555.67
2023-03-22T01:58:05.838Z,489.50
2023-03-22T02:02:11.120Z,635.67
2023-03-22T02:06:13.881Z,404.08
2023-03-22T02:10:20.569Z,328.20
2023-03-22T02:14:44.321Z,285.88
2023-03-22T02:18:58.817Z,262.50
2023-03-22T02:23:20.294Z,407.33
2023-03-22T02:27:36.949Z,386.55
2023-03-22T02:32:07.420Z,342.90
2023-03-22T02:36:32.655Z,333.55
2023-03-22T02:40:41.503Z,350.55
2023-03-22T02:44:47.069Z,284.90
2023-03-22T02:48:55.568Z,268.45
2023-03-22T02:53:02.400Z,268.88
2023-03-22T02:57:10.832Z,226.30
2023-03-22T03:01:18.578Z,317.77
2023-03-22T03:05:21.799Z,228.15
2023-03-22T03:09:24.751Z,295.10
2023-03-22T03:13:28.931Z,281.42
2023-03-22T03:17:41.729Z,334.05
2023-03-22T03:21:47.391Z,313.33
2023-03-22T03:25:58.002Z,404.65
2023-03-22T03:30:06.686Z,421.98
2023-03-22T03:34:16.654Z,496.58
2023-03-22T03:38:21.128Z,682.25
2023-03-22T03:42:26.780Z,429.25
2023-03-22T03:46:30.814Z,574.05
2023-03-22T03:50:33.954Z,614.08
2023-03-22T03:54:36.638Z,738.40
2023-03-22T03:58:39.326Z,545.78
2023-03-22T04:02:43.582Z,522.75
2023-03-22T04:06:46.238Z,530.28
2023-03-22T04:10:50.968Z,599.22
2023-03-22T04:14:55.954Z,630.75
2023-03-22T04:19:00.621Z,465.42
2023-03-22T04:23:03.300Z,627.13
2023-03-22T04:27:05.988Z,555.97
2023-03-22T04:31:09.087Z,449.75
2023-03-22T04:35:13.153Z,481.92
2023-03-22T04:39:16.160Z,518.88
2023-03-22T04:43:18.929Z,606.97
2023-03-22T04:47:21.573Z,628.83
2023-03-22T04:51:26.691Z,593.70
2023-03-22T04:55:30.035Z,681.42
2023-03-22T04:59:32.831Z,612.13
2023-03-22T05:03:36.470Z,527.95
2023-03-22T05:07:40.545Z,463.17
2023-03-22T05:11:43.358Z,600.97
2023-03-22T05:15:47.343Z,432.75
2023-03-22T05:19:52.313Z,568.65
2023-03-22T05:23:57.839Z,427.65
2023-03-22T05:28:01.583Z,519.30
2023-03-22T05:32:04.429Z,466.98
2023-03-22T05:36:08.017Z,563.03
2023-03-22T05:40:12.693Z,463.63
2023-03-22T05:44:15.463Z,392.85
2023-03-22T05:48:18.543Z,499.58
2023-03-22T05:52:21.254Z,309.60
2023-03-22T05:56:25.311Z,470.95
2023-03-22T06:00:28.813Z,319.02
2023-03-22T06:04:31.494Z,444.58
2023-03-22T06:08:34.692Z,503.50
2023-03-22T06:12:39.264Z,478.30
2023-03-22T06:16:42.040Z,519.13
2023-03-22T06:20:44.941Z,374.90
2023-03-22T06:24:48.942Z,427.38
2023-03-22T06:28:52.938Z,251.00
2023-03-22T06:36:58.155Z,653.97
2023-03-22T06:41:00.861Z,385.83
2023-03-22T06:45:06.194Z,329.42
2023-03-22T06:49:08.835Z,254.00
2023-03-22T06:53:11.670Z,119.65
2023-03-22T06:57:14.411Z,222.52
2023-03-22T07:01:18.484Z,165.52
2023-03-22T07:05:21.815Z,271.30
2023-03-22T07:09:26.837Z,640.15
2023-03-22T07:13:29.696Z,515.45
2023-03-22T07:17:33.735Z,215.88
2023-03-22T07:21:36.466Z,270.60
2023-03-22T07:25:39.170Z,700.13
2023-03-22T07:29:42.269Z,703.28
2023-03-22T07:33:46.823Z,272.45
2023-03-22T07:37:49.994Z,445.98
2023-03-22T07:41:52.727Z,396.92
2023-03-22T07:45:55.583Z,350.10
2023-03-22T07:49:59.724Z,362.13
2023-03-22T07:54:02.573Z,632.72
2023-03-22T07:58:06.099Z,483.63
2023-03-22T08:02:11.087Z,562.92
2023-03-22T08:06:16.439Z,629.97
2023-03-22T08:10:19.728Z,410.70
2023-03-22T08:14:34.074Z,649.03
2023-03-22T08:18:39.005Z,491.48
2023-03-22T08:22:43.200Z,470.35
2023-03-22T08:26:49.692Z,511.13
2023-03-22T08:30:53.581Z,524.53
2023-03-22T08:34:56.450Z,667.47
2023-03-22T08:39:01.449Z,693.03
2023-03-22T08:43:04.278Z,653.08
2023-03-22T08:47:07.041Z,400.83
2023-03-22T08:51:10.674Z,674.95
2023-03-22T08:59:20.500Z,915.08
2023-03-22T09:03:24.055Z,869.08
2023-03-22T09:11:31.348Z,939.83
2023-03-22T09:15:34.101Z,865.28
2023-03-22T09:19:37.034Z,963.20
2023-03-22T09:23:40.240Z,899.88
2023-03-22T09:27:44.420Z,890.17
2023-03-22T09:31:48.938Z,853.92
2023-03-22T09:35:51.661Z,948.13
2023-03-22T09:39:54.628Z,962.00
2023-03-22T09:44:01.768Z,786.80
2023-03-22T09:48:07.196Z,988.78
2023-03-22T09:52:14.301Z,813.72
2023-03-22T09:56:23.170Z,980.10
2023-03-22T10:00:34.866Z,999.90
2023-03-22T10:04:48.024Z,882.83
2023-03-22T10:08:58.525Z,797.35
2023-03-22T10:13:07.743Z,801.85
2023-03-22T10:17:16.633Z,724.42
2023-03-22T10:21:20.361Z,807.92
2023-03-22T10:25:32.835Z,922.42
2023-03-22T10:29:39.057Z,805.03
2023-03-22T10:33:50.472Z,885.70
2023-03-22T10:37:54.136Z,999.90
2023-03-22T10:41:58.467Z,782.13
2023-03-22T10:46:03.828Z,750.17
2023-03-22T10:50:13.738Z,854.13
2023-03-22T10:54:18.160Z,406.30
2023-03-22T10:58:22.252Z,970.15
2023-03-22T11:02:27.691Z,853.22
2023-03-22T11:06:35.659Z,999.90
2023-03-22T11:10:39.181Z,738.40
2023-03-22T11:14:44.635Z,836.40
2023-03-22T11:18:47.544Z,858.10
2023-03-22T11:22:52.777Z,938.97
2023-03-22T11:27:03.706Z,965.35
2023-03-22T11:31:09.420Z,940.28
2023-03-22T11:35:14.923Z,850.58
2023-03-22T11:39:19.201Z,875.80
2023-03-22T11:43:24.427Z,890.40
2023-03-22T11:47:28.143Z,937.67
2023-03-22T11:51:33.476Z,306.60
2023-03-22T11:55:37.966Z,909.45
2023-03-22T11:59:43.680Z,764.40
2023-03-22T12:03:51.142Z,999.90
2023-03-22T12:07:57.931Z,716.45
2023-03-22T12:12:03.060Z,761.92
2023-03-22T12:16:07.708Z,957.75
2023-03-22T12:20:18.757Z,533.88
2023-03-22T12:24:27.953Z,866.95
2023-03-22T12:28:35.018Z,961.17
2023-03-22T12:32:41.908Z,709.33
2023-03-22T12:36:48.009Z,812.65
2023-03-22T12:40:50.920Z,223.02
2023-03-22T12:45:05.094Z,818.35
2023-03-22T12:49:17.591Z,702.10
2023-03-22T12:53:21.528Z,304.70
2023-03-22T12:57:24.237Z,861.90
2023-03-22T13:01:34.677Z,741.03
2023-03-22T13:05:37.951Z,824.88
2023-03-22T13:09:43.454Z,906.67
2023-03-22T13:13:47.933Z,242.93
2023-03-22T13:17:52.000Z,926.88
2023-03-22T13:22:15.026Z,758.80
2023-03-22T13:26:18.183Z,878.05
2023-03-22T13:30:26.239Z,890.65
2023-03-22T13:34:38.243Z,787.97
2023-03-22T13:38:42.778Z,618.20
2023-03-22T13:42:45.717Z,906.80
2023-03-22T13:46:52.475Z,880.22
2023-03-22T13:50:56.923Z,851.53
2023-03-22T13:54:59.941Z,959.00
2023-03-22T13:59:04.983Z,690.92
2023-03-22T14:03:14.950Z,558.80
2023-03-22T14:07:24.273Z,948.08
2023-03-22T14:11:30.623Z,793.10
2023-03-22T14:15:36.212Z,815.53
2023-03-22T14:19:39.703Z,856.95
